Time;durP1;ratioP1;P1;durP2;ratioP2;P2;SDS_P1;SDS_P2;PMS_P1;PMS_P2;Temp;Humidity;BMP_temperature;BMP_pressure;BME280_temperature;BME280_humidity;BME280_pressure;Samples;Min_cycle;Max_cycle;Signal;HPM_P1;HPM_P2
2021/07/18 00:00:21;;;;;;;26.07;23.57;;;23.50;85.90;;;;;;5059784;28;20701;-75
2021/07/18 00:02:48;;;;;;;24.97;22.73;;;23.50;85.90;;;;;;5064579;28;20263;-75
2021/07/18 00:05:15;;;;;;;25.53;23.17;;;23.40;86.00;;;;;;5060754;28;20221;-75
2021/07/18 00:07:42;;;;;;;25.73;23.37;;;23.40;86.10;;;;;;5060739;28;20280;-75
2021/07/18 00:10:10;;;;;;;26.43;23.83;;;23.40;86.00;;;;;;5064712;28;20280;-75
2021/07/18 00:12:37;;;;;;;25.33;22.93;;;23.40;85.90;;;;;;5060554;28;20222;-75
2021/07/18 00:15:07;;;;;;;25.80;23.20;;;23.30;85.80;;;;;;5064882;28;20253;-75
2021/07/18 00:17:37;;;;;;;25.20;22.60;;;23.40;85.90;;;;;;5064373;28;20210;-75
2021/07/18 00:20:07;;;;;;;26.13;22.93;;;23.40;85.80;;;;;;5063363;28;20253;-75
2021/07/18 00:22:34;;;;;;;25.33;22.83;;;23.40;85.70;;;;;;5060371;28;20213;-75
2021/07/18 00:25:01;;;;;;;24.57;22.27;;;23.50;85.60;;;;;;5060515;28;20783;-75
2021/07/18 00:27:28;;;;;;;26.37;23.97;;;23.50;85.50;;;;;;5064098;28;20213;-75
2021/07/18 00:29:55;;;;;;;27.60;24.50;;;23.50;85.40;;;;;;5064415;28;20596;-75
2021/07/18 00:32:22;;;;;;;25.50;23.30;;;23.50;85.30;;;;;;5061018;28;20219;-75
2021/07/18 00:34:49;;;;;;;24.67;22.50;;;23.50;85.30;;;;;;5066290;28;20292;-75
2021/07/18 00:37:16;;;;;;;30.63;23.73;;;23.60;85.20;;;;;;5061158;28;20726;-75
2021/07/18 00:39:43;;;;;;;24.53;22.00;;;23.50;85.10;;;;;;5066444;28;20272;-75
2021/07/18 00:42:10;;;;;;;24.50;22.13;;;23.60;85.00;;;;;;5065049;28;20205;-75
2021/07/18 00:44:37;;;;;;;24.93;22.73;;;23.60;84.90;;;;;;5069528;28;20716;-75
2021/07/18 00:47:04;;;;;;;26.03;23.53;;;23.60;84.90;;;;;;5065526;28;20211;-75
2021/07/18 00:49:31;;;;;;;25.50;23.07;;;23.60;84.70;;;;;;5065534;28;20283;-75
2021/07/18 00:51:58;;;;;;;24.70;22.13;;;23.60;84.50;;;;;;5068201;28;20209;-75
2021/07/18 00:54:26;;;;;;;26.27;23.73;;;23.60;84.50;;;;;;5069351;28;20212;-75
2021/07/18 00:56:53;;;;;;;24.63;22.13;;;23.60;84.40;;;;;;5068872;28;20206;-75
2021/07/18 00:59:20;;;;;;;25.47;23.07;;;23.60;84.30;;;;;;5065853;28;20213;-75
2021/07/18 01:01:47;;;;;;;24.00;21.77;;;23.60;84.10;;;;;;5065019;28;20320;-75
2021/07/18 01:04:14;;;;;;;24.37;21.90;;;23.60;83.90;;;;;;5066190;28;20875;-75
2021/07/18 01:06:51;;;;;;;24.23;21.87;;;23.50;83.70;;;;;;5067340;28;20214;-75
2021/07/18 01:09:19;;;;;;;24.93;22.33;;;23.50;83.70;;;;;;5061641;28;20221;-75
2021/07/18 01:11:47;;;;;;;25.53;22.87;;;23.50;83.70;;;;;;5067061;28;20222;-75
2021/07/18 01:14:14;;;;;;;25.80;21.23;;;23.50;83.60;;;;;;5064577;28;20218;-76
2021/07/18 01:16:41;;;;;;;24.70;21.77;;;23.50;83.60;;;;;;5065221;28;20264;-76
2021/07/18 01:19:09;;;;;;;23.03;20.60;;;23.40;83.30;;;;;;5064700;28;20778;-75
2021/07/18 01:21:38;;;;;;;22.90;20.70;;;23.40;83.10;;;;;;5064083;28;20234;-75
2021/07/18 01:24:06;;;;;;;20.50;18.70;;;23.40;82.90;;;;;;5064716;28;20213;-75
2021/07/18 01:26:33;;;;;;;21.83;19.73;;;23.50;82.90;;;;;;5067209;28;20217;-75
2021/07/18 01:29:00;;;;;;;21.83;19.70;;;23.50;82.60;;;;;;5064922;28;20267;-75
2021/07/18 01:31:27;;;;;;;21.70;19.70;;;23.40;82.30;;;;;;5064949;28;20221;-75
2021/07/18 01:33:54;;;;;;;21.93;20.03;;;23.50;82.00;;;;;;5064779;28;20293;-75
2021/07/18 01:36:21;;;;;;;22.67;20.33;;;23.40;81.80;;;;;;5064994;28;20213;-75
2021/07/18 01:38:48;;;;;;;22.57;20.43;;;23.40;81.60;;;;;;5063958;28;20215;-75
2021/07/18 01:41:15;;;;;;;22.30;20.10;;;23.40;81.70;;;;;;5065412;28;20245;-75
2021/07/18 01:43:42;;;;;;;21.87;19.67;;;23.40;81.90;;;;;;5066640;28;20218;-75
2021/07/18 01:46:09;;;;;;;21.83;20.00;;;23.40;82.00;;;;;;5065751;28;20225;-75
2021/07/18 01:48:36;;;;;;;21.47;19.57;;;23.40;82.10;;;;;;5063257;28;20301;-75
2021/07/18 01:51:03;;;;;;;21.37;19.13;;;23.30;82.20;;;;;;5065938;28;20214;-75
2021/07/18 01:53:30;;;;;;;20.57;18.67;;;23.40;82.30;;;;;;5058935;28;20268;-76
2021/07/18 01:55:57;;;;;;;20.33;18.53;;;23.40;82.40;;;;;;5065962;28;20218;-75
2021/07/18 01:58:28;;;;;;;20.77;18.77;;;23.30;82.50;;;;;;5062541;28;20236;-75
2021/07/18 02:00:56;;;;;;;20.77;18.83;;;23.40;82.30;;;;;;5061849;28;20291;-75
2021/07/18 02:03:24;;;;;;;26.03;20.43;;;23.30;82.20;;;;;;5065667;28;20221;-75
2021/07/18 02:05:51;;;;;;;21.20;19.30;;;23.30;82.40;;;;;;5062434;28;20207;-75
2021/07/18 02:08:19;;;;;;;20.43;18.47;;;23.30;82.50;;;;;;5065064;28;20243;-75
2021/07/18 02:10:46;;;;;;;19.57;17.67;;;23.30;82.00;;;;;;5062542;28;20233;-75
2021/07/18 02:13:17;;;;;;;20.57;18.43;;;23.20;82.30;;;;;;5065834;28;20508;-75
2021/07/18 02:15:45;;;;;;;20.57;18.30;;;23.20;81.60;;;;;;5062574;28;20218;-75
2021/07/18 02:18:13;;;;;;;21.07;18.90;;;23.20;81.70;;;;;;5065048;28;20217;-75
2021/07/18 02:20:40;;;;;;;20.37;18.47;;;23.20;81.80;;;;;;5062207;28;20234;-75
2021/07/18 02:23:08;;;;;;;20.67;18.77;;;23.20;82.10;;;;;;5061350;28;20308;-75
2021/07/18 02:25:34;;;;;;;21.00;18.87;;;23.30;82.30;;;;;;5065698;28;20213;-75
2021/07/18 02:28:02;;;;;;;27.23;19.43;;;23.30;82.50;;;;;;5066155;28;20240;-75
2021/07/18 02:30:29;;;;;;;19.83;17.67;;;23.30;82.50;;;;;;5061836;28;20222;-76
2021/07/18 02:32:56;;;;;;;20.93;18.83;;;23.30;82.50;;;;;;5060627;28;20217;-75
2021/07/18 02:35:23;;;;;;;19.87;17.93;;;23.20;82.30;;;;;;5061348;28;20224;-75
2021/07/18 02:37:51;;;;;;;20.00;18.20;;;23.20;82.00;;;;;;5061481;28;20213;-75
2021/07/18 02:40:19;;;;;;;19.83;17.87;;;23.20;82.10;;;;;;5061995;28;20219;-75
2021/07/18 02:42:47;;;;;;;19.30;17.60;;;23.30;82.20;;;;;;5065926;28;20212;-75
2021/07/18 02:45:16;;;;;;;21.27;19.10;;;23.30;82.40;;;;;;5065744;28;20212;-75
2021/07/18 02:47:43;;;;;;;20.43;18.53;;;23.20;82.30;;;;;;5065252;28;20205;-78
2021/07/18 02:50:12;;;;;;;18.67;16.90;;;23.20;82.30;;;;;;5063205;28;20210;-75
2021/07/18 02:52:41;;;;;;;18.97;16.97;;;23.20;82.40;;;;;;5061510;28;20582;-75
2021/07/18 02:55:09;;;;;;;18.40;16.70;;;23.20;82.50;;;;;;5061374;28;20240;-75
2021/07/18 02:57:36;;;;;;;16.17;14.77;;;23.10;82.60;;;;;;5066402;28;20270;-75
2021/07/18 03:00:11;;;;;;;19.30;15.70;;;23.10;82.60;;;;;;5061549;28;20560;-75
2021/07/18 03:02:39;;;;;;;15.53;13.97;;;23.10;82.60;;;;;;5061376;28;20224;-75
2021/07/18 03:05:07;;;;;;;16.97;15.13;;;23.10;82.60;;;;;;5061629;28;20674;-76
2021/07/18 03:07:34;;;;;;;15.80;14.20;;;23.10;82.50;;;;;;5060705;28;20223;-75
2021/07/18 03:10:01;;;;;;;14.87;13.37;;;23.00;82.40;;;;;;5065119;28;20275;-75
2021/07/18 03:12:28;;;;;;;14.03;12.57;;;23.00;82.50;;;;;;5061463;28;20215;-75
2021/07/18 03:14:55;;;;;;;12.67;11.47;;;23.00;82.40;;;;;;5065076;28;20275;-75
2021/07/18 03:17:22;;;;;;;14.87;12.47;;;23.00;82.30;;;;;;5064941;28;20260;-75
2021/07/18 03:19:49;;;;;;;14.07;12.77;;;22.90;82.20;;;;;;5064568;28;20241;-75
2021/07/18 03:22:16;;;;;;;12.60;11.30;;;22.90;82.40;;;;;;5064387;28;20606;-75
2021/07/18 03:24:43;;;;;;;13.77;11.20;;;22.90;82.50;;;;;;5060713;28;20217;-75
2021/07/18 03:27:10;;;;;;;11.80;10.60;;;22.90;83.10;;;;;;5064689;28;20206;-75
2021/07/18 03:29:37;;;;;;;14.73;10.10;;;22.90;82.40;;;;;;5062000;28;20222;-76
2021/07/18 03:32:05;;;;;;;11.33;10.10;;;22.80;82.20;;;;;;5063964;28;20252;-75
2021/07/18 03:34:32;;;;;;;12.23;9.20;;;22.80;82.10;;;;;;5061817;28;20226;-75
2021/07/18 03:36:59;;;;;;;9.77;8.77;;;22.80;82.10;;;;;;5063402;28;20267;-75
2021/07/18 03:39:26;;;;;;;14.73;8.97;;;22.80;82.10;;;;;;5060585;28;20214;-76
2021/07/18 03:41:53;;;;;;;11.07;8.57;;;22.80;82.00;;;;;;5063270;28;20626;-75
2021/07/18 03:44:20;;;;;;;9.47;8.63;;;22.80;82.20;;;;;;5065997;28;20210;-76
2021/07/18 03:46:47;;;;;;;9.93;8.97;;;22.80;82.10;;;;;;5062600;28;20209;-76
2021/07/18 03:49:16;;;;;;;9.93;9.03;;;22.80;82.00;;;;;;5062808;28;20218;-75
2021/07/18 03:51:43;;;;;;;10.70;9.70;;;22.80;81.80;;;;;;5060741;28;20674;-76
2021/07/18 03:54:11;;;;;;;9.97;8.97;;;22.70;81.70;;;;;;5063249;28;20213;-75
2021/07/18 03:56:38;;;;;;;9.83;8.83;;;22.70;81.80;;;;;;5066393;28;20210;-75
2021/07/18 03:59:05;;;;;;;9.97;8.93;;;22.70;81.50;;;;;;5063252;28;20225;-75
2021/07/18 04:01:32;;;;;;;9.93;9.03;;;22.70;81.30;;;;;;5062099;28;20234;-75
2021/07/18 04:03:59;;;;;;;11.27;10.30;;;22.70;81.10;;;;;;5063333;28;20248;-75
2021/07/18 04:06:26;;;;;;;10.63;9.73;;;22.70;81.00;;;;;;5061312;28;20213;-75
2021/07/18 04:08:53;;;;;;;11.53;10.20;;;22.70;81.10;;;;;;5062099;28;20624;-75
2021/07/18 04:11:20;;;;;;;10.43;9.47;;;22.70;81.30;;;;;;5067394;28;20252;-75
2021/07/18 04:13:47;;;;;;;10.70;9.67;;;22.80;81.50;;;;;;5065032;28;20284;-75
2021/07/18 04:16:14;;;;;;;10.83;9.30;;;22.80;81.60;;;;;;5067821;28;20252;-75
2021/07/18 04:18:41;;;;;;;14.20;10.63;;;22.80;81.50;;;;;;5064477;28;20249;-75
2021/07/18 04:21:08;;;;;;;10.93;10.03;;;22.90;81.50;;;;;;5067659;28;20676;-75
2021/07/18 04:23:35;;;;;;;11.00;9.87;;;22.90;81.50;;;;;;5067380;28;20263;-75
2021/07/18 04:26:02;;;;;;;11.27;10.20;;;22.90;81.50;;;;;;5064313;28;20222;-75
2021/07/18 04:28:29;;;;;;;10.37;9.37;;;22.90;81.50;;;;;;5064124;28;20222;-75
2021/07/18 04:30:56;;;;;;;11.90;10.27;;;22.90;81.50;;;;;;5064400;28;20222;-75
2021/07/18 04:33:23;;;;;;;14.00;10.50;;;22.90;81.40;;;;;;5067712;28;20671;-75
2021/07/18 04:35:50;;;;;;;10.17;9.37;;;22.90;81.20;;;;;;5064317;28;20816;-75
2021/07/18 04:38:17;;;;;;;11.30;10.30;;;22.90;81.30;;;;;;5064226;28;20221;-75
2021/07/18 04:40:44;;;;;;;13.50;10.97;;;22.90;81.20;;;;;;5074294;28;20214;-75
2021/07/18 04:43:11;;;;;;;12.23;10.20;;;23.00;81.10;;;;;;5066645;28;20214;-75
2021/07/18 04:45:38;;;;;;;11.97;10.20;;;23.00;80.90;;;;;;5067576;28;20218;-75
2021/07/18 04:48:05;;;;;;;11.63;10.53;;;23.00;80.60;;;;;;5065077;28;20260;-75
2021/07/18 04:50:32;;;;;;;16.40;10.77;;;23.10;80.20;;;;;;5062706;28;20768;-75
2021/07/18 04:52:59;;;;;;;10.67;9.60;;;23.20;80.20;;;;;;5068136;28;20210;-75
2021/07/18 04:55:26;;;;;;;13.33;9.67;;;23.30;80.20;;;;;;5063826;28;20602;-76
2021/07/18 04:57:53;;;;;;;11.40;10.17;;;23.50;80.00;;;;;;5067704;28;20290;-75
2021/07/18 05:00:23;;;;;;;11.50;10.13;;;23.60;79.50;;;;;;5065322;28;20218;-75
2021/07/18 05:02:50;;;;;;;12.33;11.07;;;23.80;78.90;;;;;;5065169;28;20233;-75
2021/07/18 05:05:19;;;;;;;11.30;10.30;;;24.00;78.40;;;;;;5065587;28;20222;-75
2021/07/18 05:07:47;;;;;;;11.10;9.47;;;24.20;77.70;;;;;;5063119;28;20210;-75
2021/07/18 05:10:17;;;;;;;10.37;9.30;;;24.30;77.00;;;;;;5065218;28;20569;-75
2021/07/18 05:12:49;;;;;;;11.43;10.23;;;24.50;76.10;;;;;;5064683;28;20232;-75
2021/07/18 05:15:17;;;;;;;11.40;9.57;;;24.60;75.60;;;;;;5064381;28;20661;-75
2021/07/18 05:17:44;;;;;;;11.40;10.40;;;24.60;74.70;;;;;;5065883;28;20210;-75
2021/07/18 05:20:12;;;;;;;11.07;9.97;;;24.60;74.50;;;;;;5064035;28;20245;-75
2021/07/18 05:22:39;;;;;;;11.23;10.23;;;24.50;74.20;;;;;;5066635;28;20241;-75
2021/07/18 05:25:08;;;;;;;11.07;10.07;;;24.50;74.20;;;;;;5063364;28;20214;-75
2021/07/18 05:27:36;;;;;;;13.10;10.47;;;24.40;74.20;;;;;;5065789;28;20283;-75
2021/07/18 05:30:05;;;;;;;12.33;11.07;;;24.40;73.90;;;;;;5064172;28;20718;-77
2021/07/18 05:32:32;;;;;;;11.47;10.07;;;24.50;73.60;;;;;;5067008;28;20278;-75
2021/07/18 05:34:59;;;;;;;10.43;9.53;;;24.50;73.60;;;;;;5065601;28;20222;-75
2021/07/18 05:37:26;;;;;;;10.83;9.93;;;24.50;73.90;;;;;;5062383;28;20264;-75
2021/07/18 05:39:54;;;;;;;9.93;8.70;;;24.50;74.00;;;;;;5066884;28;20221;-75
2021/07/18 05:42:20;;;;;;;10.27;9.27;;;24.50;74.10;;;;;;5062764;28;20675;-75
2021/07/18 05:44:47;;;;;;;9.57;8.77;;;24.60;74.10;;;;;;5066685;28;20607;-75
2021/07/18 05:47:15;;;;;;;9.57;8.67;;;24.60;74.20;;;;;;5064371;28;20291;-75
2021/07/18 05:49:42;;;;;;;10.00;9.00;;;24.60;73.80;;;;;;5064668;28;20233;-75
2021/07/18 05:52:09;;;;;;;10.00;9.03;;;24.60;73.30;;;;;;5064370;28;20656;-75
2021/07/18 05:54:38;;;;;;;10.90;8.90;;;24.60;73.50;;;;;;5065234;28;20620;-75
2021/07/18 05:57:05;;;;;;;12.63;9.63;;;24.70;73.10;;;;;;5066880;28;20213;-75
2021/07/18 05:59:32;;;;;;;11.90;10.27;;;24.80;72.30;;;;;;5063866;28;20214;-75
2021/07/18 06:01:59;;;;;;;11.77;10.67;;;24.90;71.50;;;;;;5064900;28;20726;-75
2021/07/18 06:04:27;;;;;;;10.77;9.60;;;25.00;71.60;;;;;;5063206;28;20234;-76
2021/07/18 06:06:54;;;;;;;11.60;10.50;;;25.10;71.70;;;;;;5065071;28;20233;-75
2021/07/18 06:09:21;;;;;;;11.00;9.97;;;25.20;71.70;;;;;;5062341;28;20221;-75
2021/07/18 06:11:48;;;;;;;11.83;9.57;;;25.30;71.70;;;;;;5063174;28;20620;-75
2021/07/18 06:14:15;;;;;;;10.80;9.90;;;25.40;71.60;;;;;;5065485;28;20217;-75
2021/07/18 06:16:42;;;;;;;10.43;9.50;;;25.50;71.40;;;;;;5062489;28;20267;-75
2021/07/18 06:19:09;;;;;;;10.60;9.63;;;25.60;71.00;;;;;;5065250;28;20241;-75
2021/07/18 06:21:36;;;;;;;9.57;8.67;;;25.70;70.80;;;;;;5061720;28;20652;-76
2021/07/18 06:24:03;;;;;;;9.53;8.73;;;25.80;70.50;;;;;;5065625;28;20225;-76
2021/07/18 06:26:32;;;;;;;10.30;9.27;;;25.80;70.00;;;;;;5062035;28;20205;-76
2021/07/18 06:29:00;;;;;;;10.07;8.57;;;25.80;69.70;;;;;;5062202;28;20647;-75
2021/07/18 06:31:27;;;;;;;9.23;8.43;;;25.90;69.40;;;;;;5061333;28;20256;-75
2021/07/18 06:33:55;;;;;;;10.27;9.17;;;26.10;69.40;;;;;;5061926;28;20224;-75
2021/07/18 06:36:22;;;;;;;9.57;8.63;;;26.20;68.90;;;;;;5061831;28;20237;-75
2021/07/18 06:38:48;;;;;;;10.03;9.03;;;26.30;68.30;;;;;;5062076;28;20218;-75
2021/07/18 06:41:15;;;;;;;9.47;8.57;;;26.50;68.00;;;;;;5066003;28;20218;-75
2021/07/18 06:43:43;;;;;;;10.00;9.10;;;26.70;67.80;;;;;;5066387;28;20746;-75
2021/07/18 06:46:27;;;;;;;10.13;9.20;;;26.90;67.50;;;;;;5062908;28;20218;-75
2021/07/18 06:48:54;;;;;;;9.47;8.77;;;27.10;66.60;;;;;;5063924;28;20218;-75
2021/07/18 06:51:21;;;;;;;8.73;8.03;;;27.20;66.20;;;;;;5057848;28;20203;-75
2021/07/18 06:53:48;;;;;;;9.10;8.40;;;27.30;66.00;;;;;;5062459;28;20612;-75
2021/07/18 06:56:31;;;;;;;9.33;8.53;;;27.30;65.80;;;;;;5061868;28;20718;-75
2021/07/18 06:58:59;;;;;;;9.27;8.47;;;27.40;65.90;;;;;;5061011;28;20218;-75
2021/07/18 07:01:27;;;;;;;9.70;8.67;;;27.60;65.40;;;;;;5063765;28;20213;-75
2021/07/18 07:03:54;;;;;;;10.10;9.10;;;28.00;64.80;;;;;;5061471;28;20847;-75
2021/07/18 07:06:22;;;;;;;9.73;8.73;;;28.40;63.60;;;;;;5059279;28;20229;-75
2021/07/18 07:08:49;;;;;;;9.57;8.60;;;28.60;62.50;;;;;;5062021;28;20214;-75
2021/07/18 07:11:16;;;;;;;9.73;8.73;;;28.70;62.70;;;;;;5062666;28;20257;-75
2021/07/18 07:13:43;;;;;;;9.03;8.00;;;28.90;62.10;;;;;;5060951;28;20209;-75
2021/07/18 07:16:11;;;;;;;8.60;7.87;;;29.10;61.20;;;;;;5062813;28;20698;-75
2021/07/18 07:18:38;;;;;;;9.00;8.30;;;29.30;60.50;;;;;;5061440;28;20236;-75
2021/07/18 07:21:05;;;;;;;8.43;7.67;;;29.60;59.50;;;;;;5060593;28;20263;-75
2021/07/18 07:23:32;;;;;;;8.60;7.90;;;29.80;59.20;;;;;;5065733;28;20691;-75
2021/07/18 07:25:59;;;;;;;9.40;7.93;;;30.00;58.80;;;;;;5060149;28;20683;-75
2021/07/18 07:28:26;;;;;;;10.13;8.60;;;30.10;58.20;;;;;;5062617;28;20221;-75
2021/07/18 07:30:54;;;;;;;8.80;8.00;;;30.30;57.00;;;;;;5060093;28;20216;-75
2021/07/18 07:33:25;;;;;;;8.43;7.13;;;30.40;56.30;;;;;;5062187;28;20215;-75
2021/07/18 07:35:52;;;;;;;9.90;8.90;;;30.60;56.50;;;;;;5062469;28;20593;-75
2021/07/18 07:38:19;;;;;;;8.87;8.00;;;30.80;55.20;;;;;;5059825;28;20224;-75
2021/07/18 07:40:47;;;;;;;8.30;7.60;;;31.00;55.00;;;;;;5062626;28;20282;-75
2021/07/18 07:43:14;;;;;;;9.10;8.33;;;31.30;54.30;;;;;;5061257;28;20234;-75
2021/07/18 07:45:41;;;;;;;9.40;7.67;;;31.40;53.30;;;;;;5067216;28;20213;-75
2021/07/18 07:48:08;;;;;;;8.83;8.13;;;31.50;52.60;;;;;;5064129;28;20225;-75
2021/07/18 07:50:35;;;;;;;7.70;6.67;;;31.40;51.70;;;;;;5067647;28;20224;-75
2021/07/18 07:53:03;;;;;;;7.13;6.43;;;31.40;52.70;;;;;;5067877;28;20655;-75
2021/07/18 07:55:30;;;;;;;7.20;6.50;;;31.60;52.80;;;;;;5061757;28;20272;-75
2021/07/18 07:57:57;;;;;;;8.63;6.80;;;31.90;52.30;;;;;;5071198;28;20225;-75
2021/07/18 08:00:25;;;;;;;6.00;5.20;;;32.20;51.50;;;;;;5064815;28;20222;-75
2021/07/18 08:02:52;;;;;;;8.47;7.77;;;32.40;50.90;;;;;;5064904;28;20688;-75
2021/07/18 08:05:20;;;;;;;5.03;4.60;;;32.30;50.50;;;;;;5064782;28;20217;-75
2021/07/18 08:07:48;;;;;;;5.70;5.10;;;32.00;48.70;;;;;;5064318;28;20552;-75
2021/07/18 08:10:19;;;;;;;5.57;5.07;;;31.60;48.50;;;;;;5067913;28;20331;-75
2021/07/18 08:12:48;;;;;;;6.50;4.80;;;31.30;50.40;;;;;;5065678;28;20228;-75
2021/07/18 08:15:17;;;;;;;8.47;5.43;;;31.50;51.00;;;;;;5066514;28;20218;-75
2021/07/18 08:17:44;;;;;;;5.17;4.73;;;31.80;50.80;;;;;;5063497;28;20271;-75
2021/07/18 08:20:15;;;;;;;6.43;5.40;;;32.00;49.50;;;;;;5066088;28;20253;-75
2021/07/18 08:22:45;;;;;;;7.40;5.87;;;31.90;49.30;;;;;;5069318;28;20698;-75
2021/07/18 08:25:16;;;;;;;6.50;5.77;;;31.70;49.90;;;;;;5065765;28;20206;-75
2021/07/18 08:27:43;;;;;;;9.23;7.07;;;31.40;49.70;;;;;;5066352;28;20209;-75
2021/07/18 08:30:11;;;;;;;9.23;6.57;;;31.10;50.40;;;;;;5064653;28;20217;-76
2021/07/18 08:32:38;;;;;;;6.23;5.63;;;31.00;52.30;;;;;;5066916;28;20267;-75
2021/07/18 08:35:07;;;;;;;6.77;5.93;;;31.30;51.90;;;;;;5065597;28;20250;-75
2021/07/18 08:37:34;;;;;;;7.53;5.57;;;31.70;51.40;;;;;;5066635;28;20218;-76
2021/07/18 08:40:03;;;;;;;13.43;5.90;;;32.00;50.60;;;;;;5065473;28;20210;-76
2021/07/18 08:42:30;;;;;;;8.10;5.70;;;32.20;49.60;;;;;;5071532;28;20233;-76
2021/07/18 08:44:58;;;;;;;6.50;5.93;;;32.30;48.80;;;;;;5067986;28;20245;-76
2021/07/18 08:47:25;;;;;;;6.50;5.63;;;32.30;49.70;;;;;;5064978;28;20207;-76
2021/07/18 08:49:52;;;;;;;7.10;4.43;;;32.10;49.30;;;;;;5066769;28;20247;-76
2021/07/18 08:52:24;;;;;;;5.40;4.73;;;31.80;49.30;;;;;;5067194;28;20226;-75
2021/07/18 08:54:52;;;;;;;4.47;3.40;;;31.70;49.30;;;;;;5065406;28;20221;-75
2021/07/18 08:57:21;;;;;;;12.43;4.20;;;31.60;50.40;;;;;;5066467;28;20268;-76
2021/07/18 08:59:49;;;;;;;5.20;4.67;;;31.90;49.10;;;;;;5064872;28;20251;-75
2021/07/18 09:02:18;;;;;;;4.20;3.80;;;32.10;48.90;;;;;;5064913;28;20721;-76
2021/07/18 09:04:45;;;;;;;3.60;3.27;;;32.20;48.80;;;;;;5065774;28;20291;-75
2021/07/18 09:07:17;;;;;;;4.73;3.43;;;32.40;48.80;;;;;;5065087;28;20632;-76
2021/07/18 09:09:48;;;;;;;5.07;3.83;;;32.60;48.40;;;;;;5065412;28;20213;-75
2021/07/18 09:12:17;;;;;;;5.27;4.13;;;32.60;48.50;;;;;;5065869;28;20301;-75
2021/07/18 09:14:46;;;;;;;4.00;3.60;;;32.60;48.20;;;;;;5064558;28;20429;-76
2021/07/18 09:17:22;;;;;;;6.00;3.20;;;32.60;48.10;;;;;;5066749;28;20831;-76
2021/07/18 09:19:49;;;;;;;5.77;3.20;;;32.70;48.50;;;;;;5063919;28;20246;-76
2021/07/18 09:22:22;;;;;;;4.73;2.20;;;32.70;48.90;;;;;;5068943;28;20238;-76
2021/07/18 09:24:52;;;;;;;4.13;2.20;;;32.60;46.50;;;;;;5067430;28;20267;-75
2021/07/18 09:27:26;;;;;;;2.53;2.33;;;32.40;46.80;;;;;;5067480;28;20210;-76
2021/07/18 09:30:03;;;;;;;3.60;2.73;;;32.30;47.40;;;;;;5065728;28;20244;-76
2021/07/18 09:32:34;;;;;;;3.30;2.20;;;32.30;46.50;;;;;;5063078;28;20651;-75
2021/07/18 09:35:06;;;;;;;3.93;2.40;;;32.20;45.60;;;;;;5065901;28;20558;-76
2021/07/18 09:37:36;;;;;;;5.20;2.13;;;32.20;46.40;;;;;;5063195;28;20210;-75
2021/07/18 09:40:13;;;;;;;3.77;2.87;;;32.20;46.50;;;;;;5066633;28;20224;-76
2021/07/18 09:42:45;;;;;;;3.13;2.50;;;32.40;45.90;;;;;;5063490;28;20236;-75
2021/07/18 09:45:12;;;;;;;3.03;2.73;;;32.40;46.30;;;;;;5066369;28;20213;-76
2021/07/18 09:47:53;;;;;;;2.37;2.13;;;32.40;46.30;;;;;;5065480;28;20217;-75
2021/07/18 09:50:41;;;;;;;2.57;2.40;;;32.20;46.40;;;;;;5066938;28;20210;-75
2021/07/18 09:53:14;;;;;;;6.13;2.30;;;32.20;46.40;;;;;;5072046;28;20244;-76
2021/07/18 09:55:56;;;;;;;3.17;2.17;;;32.20;46.90;;;;;;5066030;28;20214;-76
2021/07/18 09:58:24;;;;;;;2.90;2.47;;;32.00;47.00;;;;;;5065697;28;20214;-76
2021/07/18 10:00:52;;;;;;;2.30;2.10;;;31.90;43.60;;;;;;5062890;28;20281;-76
2021/07/18 10:03:23;;;;;;;2.20;2.10;;;31.70;44.50;;;;;;5068582;28;20373;-76
2021/07/18 10:06:10;;;;;;;2.10;1.90;;;31.50;44.80;;;;;;5061914;28;20225;-75
2021/07/18 10:08:42;;;;;;;1.97;1.87;;;31.40;45.40;;;;;;5063111;28;20214;-75
2021/07/18 10:11:12;;;;;;;6.70;2.57;;;31.40;45.30;;;;;;5065992;28;20217;-76
2021/07/18 10:13:41;;;;;;;3.03;2.47;;;31.50;45.70;;;;;;5062175;28;20222;-76
2021/07/18 10:16:11;;;;;;;2.57;2.37;;;31.60;45.50;;;;;;5062447;28;20646;-76
2021/07/18 10:18:41;;;;;;;2.40;2.20;;;31.70;44.90;;;;;;5062018;28;20210;-75
2021/07/18 10:21:10;;;;;;;4.27;2.10;;;31.80;44.10;;;;;;5065322;28;20292;-76
2021/07/18 10:23:41;;;;;;;2.40;2.20;;;31.90;44.80;;;;;;5061878;28;20230;-76
2021/07/18 10:26:18;;;;;;;2.53;2.27;;;31.90;44.00;;;;;;5063638;28;20296;-76
2021/07/18 10:28:47;;;;;;;3.20;2.40;;;31.90;44.20;;;;;;5063392;28;20271;-76
2021/07/18 10:31:22;;;;;;;3.57;2.20;;;32.10;43.20;;;;;;5064035;28;20210;-76
2021/07/18 10:33:50;;;;;;;2.73;2.30;;;32.10;42.40;;;;;;5065895;28;20581;-76
2021/07/18 10:36:21;;;;;;;4.90;2.60;;;32.00;43.00;;;;;;5061686;28;20214;-76
2021/07/18 10:38:55;;;;;;;3.93;2.37;;;32.00;44.00;;;;;;5062224;28;20554;-76
2021/07/18 10:41:42;;;;;;;2.90;2.37;;;32.60;43.20;;;;;;5062268;28;20229;-76
2021/07/18 10:44:17;;;;;;;3.20;2.47;;;33.10;41.10;;;;;;5061819;28;20647;-76
2021/07/18 10:46:44;;;;;;;5.07;2.30;;;33.40;40.90;;;;;;5054760;28;20283;-76
2021/07/18 10:49:14;;;;;;;2.23;1.90;;;33.60;42.50;;;;;;5054376;28;20220;-76
2021/07/18 10:51:49;;;;;;;3.77;2.67;;;33.70;42.60;;;;;;5053681;28;20207;-76
2021/07/18 10:54:19;;;;;;;4.60;2.27;;;33.70;43.10;;;;;;5056291;28;20210;-76
2021/07/18 10:56:48;;;;;;;9.20;2.40;;;33.60;42.40;;;;;;5060146;28;20246;-76
2021/07/18 10:59:38;;;;;;;2.67;2.23;;;33.40;41.40;;;;;;5059543;28;20214;-76
2021/07/18 11:02:11;;;;;;;4.30;2.40;;;33.30;41.20;;;;;;5062120;28;20221;-76
2021/07/18 11:04:50;;;;;;;2.77;2.10;;;33.20;41.80;;;;;;5058419;28;20210;-76
2021/07/18 11:07:30;;;;;;;3.20;2.40;;;33.10;41.70;;;;;;5062561;28;20649;-76
2021/07/18 11:10:08;;;;;;;5.27;3.00;;;33.00;41.50;;;;;;5054295;28;20218;-76
2021/07/18 11:12:41;;;;;;;2.07;1.87;;;33.20;41.70;;;;;;5056937;28;20218;-76
2021/07/18 11:15:22;;;;;;;2.40;2.10;;;33.60;41.20;;;;;;5060037;28;20226;-76
2021/07/18 11:18:13;;;;;;;2.17;2.00;;;33.80;39.60;;;;;;5062040;28;20257;-76
2021/07/18 11:20:54;;;;;;;2.23;2.03;;;33.90;40.30;;;;;;5060120;28;20276;-76
2021/07/18 11:23:39;;;;;;;2.90;2.70;;;34.00;41.20;;;;;;5052842;28;20225;-76
2021/07/18 11:26:09;;;;;;;2.77;2.13;;;34.00;41.60;;;;;;5059028;28;20224;-76
2021/07/18 11:28:48;;;;;;;6.00;2.70;;;33.80;40.20;;;;;;5060554;28;20756;-77
2021/07/18 11:31:26;;;;;;;3.03;2.37;;;33.70;40.50;;;;;;5042800;28;20225;-77
2021/07/18 11:34:06;;;;;;;2.13;2.00;;;33.70;39.40;;;;;;5059570;28;20689;-76
2021/07/18 11:36:33;;;;;;;2.70;2.50;;;33.80;40.20;;;;;;5060955;28;20220;-76
2021/07/18 11:39:12;;;;;;;3.67;2.10;;;33.90;40.30;;;;;;5055459;28;20273;-76
2021/07/18 11:41:40;;;;;;;2.80;2.60;;;34.10;40.90;;;;;;5051270;28;20215;-76
2021/07/18 11:44:09;;;;;;;2.50;2.30;;;34.30;40.70;;;;;;5065179;28;20220;-76
2021/07/18 11:46:39;;;;;;;4.10;2.23;;;34.50;40.60;;;;;;5060231;28;20681;-76
2021/07/18 11:49:08;;;;;;;3.80;2.40;;;34.70;40.70;;;;;;5051468;28;20215;-76
2021/07/18 11:51:37;;;;;;;3.33;2.30;;;34.90;40.00;;;;;;5047872;28;20218;-76
2021/07/18 11:54:06;;;;;;;2.40;2.17;;;35.00;40.30;;;;;;5045171;28;20596;-76
2021/07/18 11:56:36;;;;;;;3.23;2.00;;;35.10;39.60;;;;;;5042673;28;20207;-76
2021/07/18 11:59:13;;;;;;;2.87;2.17;;;35.10;39.50;;;;;;5045961;28;20234;-76
2021/07/18 12:01:44;;;;;;;3.17;2.03;;;35.10;39.60;;;;;;5046633;28;20891;-76
2021/07/18 12:04:15;;;;;;;3.40;2.23;;;35.00;38.90;;;;;;5044362;28;20219;-76
2021/07/18 12:06:43;;;;;;;3.00;2.27;;;34.90;39.10;;;;;;5040053;28;20264;-76
2021/07/18 12:09:15;;;;;;;2.87;2.10;;;34.90;39.30;;;;;;5043620;28;20215;-76
2021/07/18 12:11:44;;;;;;;2.73;2.23;;;34.80;38.00;;;;;;5040246;28;20218;-76
2021/07/18 12:14:12;;;;;;;3.73;2.40;;;34.60;39.10;;;;;;5047494;28;20218;-76
2021/07/18 12:16:42;;;;;;;2.60;2.40;;;34.50;39.50;;;;;;5043826;28;20245;-76
2021/07/18 12:19:09;;;;;;;3.07;2.13;;;34.50;38.80;;;;;;5043067;28;20329;-76
2021/07/18 12:21:38;;;;;;;2.10;2.00;;;34.50;38.60;;;;;;5046373;28;20211;-76
2021/07/18 12:24:31;;;;;;;3.37;2.30;;;34.50;38.20;;;;;;5039886;28;20731;-75
2021/07/18 12:26:58;;;;;;;2.63;2.43;;;34.60;38.40;;;;;;5039586;28;20280;-76
2021/07/18 12:29:37;;;;;;;4.13;2.10;;;34.60;37.90;;;;;;5047264;28;20253;-76
2021/07/18 12:32:05;;;;;;;2.30;2.10;;;34.50;38.00;;;;;;5041693;28;20207;-75
2021/07/18 12:34:41;;;;;;;2.17;2.07;;;34.40;37.90;;;;;;5045606;28;20649;-76
2021/07/18 12:37:09;;;;;;;2.17;2.00;;;34.30;37.30;;;;;;5045158;28;20250;-76
2021/07/18 12:39:40;;;;;;;2.80;2.30;;;34.30;38.60;;;;;;5048527;28;20219;-75
2021/07/18 12:42:13;;;;;;;2.43;2.27;;;34.30;39.50;;;;;;5043164;28;20215;-75
2021/07/18 12:44:53;;;;;;;2.50;2.30;;;34.60;39.00;;;;;;5047900;28;20586;-76
2021/07/18 12:47:33;;;;;;;4.17;2.47;;;34.70;38.40;;;;;;5046450;28;20219;-76